Time;durP1;ratioP1;P1;durP2;ratioP2;P2;SDS_P1;SDS_P2;PMS_P1;PMS_P2;Temp;Humidity;BMP_temperature;BMP_pressure;BME280_temperature;BME280_humidity;BME280_pressure;Samples;Min_cycle;Max_cycle;Signal;HPM_P1;HPM_P2
2023/04/18 00:00:37;;;;;;;;;;;;;;;;;;6132582;23;19921;-87
2023/04/18 00:03:08;;;;;;;;;;;;;;;;;;6109239;23;19921;-87
2023/04/18 00:05:36;;;;;;;;;;;;;;;;;;6107261;23;19928;-88
2023/04/18 00:08:07;;;;;;;;;;;;;;;;;;6108167;23;19920;-89
2023/04/18 00:10:34;;;;;;;;;;;;;;;;;;6128483;23;19920;-90
2023/04/18 00:13:01;;;;;;;;;;;;;;;;;;6188865;23;19943;-91
2023/04/18 00:15:29;;;;;;;;;;;;;;;;;;6188143;23;19931;-90
2023/04/18 00:17:56;;;;;;;;;;;;;;;;;;6212651;23;19943;-91
2023/04/18 00:20:25;;;;;;;;;;;;;;;;;;6187442;23;19935;-91
2023/04/18 00:22:53;;;;;;;;;;;;;;;;;;6188881;23;19927;-91
2023/04/18 00:25:22;;;;;;;;;;;;;;;;;;6214325;23;20140;-90
2023/04/18 00:27:49;;;;;;;;;;;;;;;;;;6214146;23;19924;-91
2023/04/18 00:30:17;;;;;;;;;;;;;;;;;;6167572;23;19921;-91
2023/04/18 00:32:45;;;;;;;;;;;;;;;;;;6133265;23;19924;-91
2023/04/18 00:35:12;;;;;;;;;;;;;;;;;;6134057;23;19924;-91
2023/04/18 00:37:39;;;;;;;;;;;;;;;;;;6135047;23;19921;-91
2023/04/18 00:40:06;;;;;;;;;;;;;;;;;;6184364;23;19927;-91
2023/04/18 00:42:35;;;;;;;;;;;;;;;;;;6185239;23;19920;-91
2023/04/18 00:45:02;;;;;;;;;;;;;;;;;;6159911;23;19927;-91
2023/04/18 00:47:30;;;;;;;;;;;;;;;;;;6158983;23;19920;-91
2023/04/18 00:49:58;;;;;;;;;;;;;;;;;;6192128;23;19920;-91
2023/04/18 00:52:25;;;;;;;;;;;;;;;;;;6167622;23;19927;-91
2023/04/18 00:54:53;;;;;;;;;;;;;;;;;;6184174;23;20348;-92
2023/04/18 00:57:20;;;;;;;;;;;;;;;;;;6158044;23;19925;-91
2023/04/18 00:59:49;;;;;;;;;;;;;;;;;;6158662;23;19927;-91
2023/04/18 01:02:16;;;;;;;;;;;;;;;;;;6167915;23;19920;-91
2023/04/18 01:04:43;;;;;;;;;;;;;;;;;;6167431;23;19920;-91
2023/04/18 01:07:11;;;;;;;;;;;;;;;;;;6182000;23;19931;-91
2023/04/18 01:09:38;;;;;;;;;;;;;;;;;;6182775;23;19924;-91
2023/04/18 01:12:05;;;;;;;;;;;;;;;;;;6158004;23;19921;-92
2023/04/18 01:14:32;;;;;;;;;;;;;;;;;;6157980;23;20263;-92
2023/04/18 01:17:01;;;;;;;;;;;;;;;;;;6167962;23;19927;-92
2023/04/18 01:19:28;;;;;;;;;;;;;;;;;;6131854;23;19925;-91
2023/04/18 01:21:55;;;;;;;;;;;;;;;;;;6184420;23;20420;-91
2023/04/18 01:24:25;;;;;;;;;;;;;;;;;;6158390;23;19924;-91
2023/04/18 01:26:52;;;;;;;;;;;;;;;;;;6183887;23;19931;-91
2023/04/18 01:29:19;;;;;;;;;;;;;;;;;;6157644;23;19920;-91
2023/04/18 01:31:46;;;;;;;;;;;;;;;;;;6182593;23;19931;-92
2023/04/18 01:34:16;;;;;;;;;;;;;;;;;;6133381;23;19920;-91
2023/04/18 01:36:43;;;;;;;;;;;;;;;;;;6157055;23;19971;-91
2023/04/18 01:39:11;;;;;;;;;;;;;;;;;;6184187;23;19931;-91
2023/04/18 01:41:41;;;;;;;;;;;;;;;;;;6157864;23;19921;-91
2023/04/18 01:44:08;;;;;;;;;;;;;;;;;;6182626;23;19921;-92
2023/04/18 01:46:35;;;;;;;;;;;;;;;;;;6182054;23;19920;-91
2023/04/18 01:49:02;;;;;;;;;;;;;;;;;;6193077;23;19920;-92
2023/04/18 01:51:30;;;;;;;;;;;;;;;;;;6183531;23;19927;-92
2023/04/18 01:53:57;;;;;;;;;;;;;;;;;;6133029;23;19920;-91
2023/04/18 01:56:24;;;;;;;;;;;;;;;;;;6157485;23;19920;-91
2023/04/18 01:58:53;;;;;;;;;;;;;;;;;;6158017;23;20261;-91
2023/04/18 02:01:20;;;;;;;;;;;;;;;;;;6132947;23;19927;-91
2023/04/18 02:03:47;;;;;;;;;;;;;;;;;;6183882;23;19920;-90
2023/04/18 02:06:14;;;;;;;;;;;;;;;;;;6132571;23;19928;-91
2023/04/18 02:08:41;;;;;;;;;;;;;;;;;;6184919;23;20229;-91
2023/04/18 02:11:08;;;;;;;;;;;;;;;;;;6183936;23;19927;-91
2023/04/18 02:13:36;;;;;;;;;;;;;;;;;;6183436;23;19920;-91
2023/04/18 02:16:12;;;;;;;;;;;;;;;;;;6157629;23;20266;-92
2023/04/18 02:18:42;;;;;;;;;;;;;;;;;;6194241;23;20259;-92
2023/04/18 02:21:10;;;;;;;;;;;;;;;;;;6160538;23;19924;-92
2023/04/18 02:23:37;;;;;;;;;;;;;;;;;;6159172;23;20351;-91
2023/04/18 02:26:04;;;;;;;;;;;;;;;;;;6157148;23;19924;-92
2023/04/18 02:28:31;;;;;;;;;;;;;;;;;;6158281;23;20336;-91
2023/04/18 02:30:59;;;;;;;;;;;;;;;;;;6158113;23;19920;-91
2023/04/18 02:33:28;;;;;;;;;;;;;;;;;;6194375;23;19927;-91
2023/04/18 02:35:56;;;;;;;;;;;;;;;;;;6156726;23;21530;-91
2023/04/18 02:38:24;;;;;;;;;;;;;;;;;;6194466;23;20347;-91
2023/04/18 02:40:52;;;;;;;;;;;;;;;;;;6161336;23;20352;-91
2023/04/18 02:43:21;;;;;;;;;;;;;;;;;;6167454;23;19920;-91
2023/04/18 02:45:48;;;;;;;;;;;;;;;;;;6158225;23;19927;-91
2023/04/18 02:48:15;;;;;;;;;;;;;;;;;;6183965;23;19928;-91
2023/04/18 02:50:45;;;;;;;;;;;;;;;;;;6133836;23;19977;-91
2023/04/18 02:53:12;;;;;;;;;;;;;;;;;;6157725;23;19924;-91
2023/04/18 02:55:50;;;;;;;;;;;;;;;;;;6134388;23;19920;-91
2023/04/18 02:58:17;;;;;;;;;;;;;;;;;;6182788;23;19920;-91
2023/04/18 03:01:05;;;;;;;;;;;;;;;;;;6163374;23;19924;-91
2023/04/18 03:03:51;;;;;;;;;;;;;;;;;;6194673;23;19968;-91
2023/04/18 03:06:52;;;;;;;;;;;;;;;;;;6153782;23;19931;-91
2023/04/18 03:09:19;;;;;;;;;;;;;;;;;;6132836;23;19920;-91
2023/04/18 03:11:51;;;;;;;;;;;;;;;;;;6157968;23;20240;-91
2023/04/18 03:14:24;;;;;;;;;;;;;;;;;;6167807;23;19924;-91
2023/04/18 03:16:54;;;;;;;;;;;;;;;;;;6157066;23;19928;-91
2023/04/18 03:19:25;;;;;;;;;;;;;;;;;;6157657;23;19927;-91
2023/04/18 03:21:55;;;;;;;;;;;;;;;;;;6133356;23;19932;-91
2023/04/18 03:24:22;;;;;;;;;;;;;;;;;;6158299;23;19927;-91
2023/04/18 03:26:52;;;;;;;;;;;;;;;;;;6157891;23;19920;-91
2023/04/18 03:29:23;;;;;;;;;;;;;;;;;;6166265;23;19920;-90
2023/04/18 03:31:51;;;;;;;;;;;;;;;;;;6159790;23;19920;-90
2023/04/18 03:34:18;;;;;;;;;;;;;;;;;;6170363;23;19920;-91
2023/04/18 03:36:45;;;;;;;;;;;;;;;;;;6159210;23;19920;-91
2023/04/18 03:39:14;;;;;;;;;;;;;;;;;;6160248;23;19921;-91
2023/04/18 03:41:41;;;;;;;;;;;;;;;;;;6159920;23;20292;-90
2023/04/18 03:44:09;;;;;;;;;;;;;;;;;;6160711;23;19928;-91
2023/04/18 03:46:37;;;;;;;;;;;;;;;;;;6162104;23;19920;-91
2023/04/18 03:49:05;;;;;;;;;;;;;;;;;;6166121;23;19920;-93
2023/04/18 03:51:33;;;;;;;;;;;;;;;;;;6190258;23;20209;-91
2023/04/18 03:54:00;;;;;;;;;;;;;;;;;;6198720;23;19920;-91
2023/04/18 03:56:29;;;;;;;;;;;;;;;;;;6133751;23;19924;-92
2023/04/18 03:58:57;;;;;;;;;;;;;;;;;;6171106;23;19920;-92
2023/04/18 04:01:25;;;;;;;;;;;;;;;;;;6134381;23;19924;-91
2023/04/18 04:03:53;;;;;;;;;;;;;;;;;;6160954;23;20420;-91
2023/04/18 04:06:21;;;;;;;;;;;;;;;;;;6159454;23;19920;-91
2023/04/18 04:08:48;;;;;;;;;;;;;;;;;;6159467;23;20403;-90
2023/04/18 04:11:19;;;;;;;;;;;;;;;;;;6161214;23;19920;-92
2023/04/18 04:13:50;;;;;;;;;;;;;;;;;;6161596;23;19921;-90
2023/04/18 04:16:21;;;;;;;;;;;;;;;;;;6136928;23;19920;-91
2023/04/18 04:18:53;;;;;;;;;;;;;;;;;;6161866;23;19920;-91
2023/04/18 04:21:29;;;;;;;;;;;;;;;;;;6163019;23;20359;-91
2023/04/18 04:23:57;;;;;;;;;;;;;;;;;;6188892;23;19920;-92
2023/04/18 04:26:36;;;;;;;;;;;;;;;;;;6135738;23;20255;-91
2023/04/18 04:29:12;;;;;;;;;;;;;;;;;;6169066;23;19920;-92
2023/04/18 04:31:45;;;;;;;;;;;;;;;;;;6161118;23;19920;-91
2023/04/18 04:34:16;;;;;;;;;;;;;;;;;;6170918;23;20341;-92
2023/04/18 04:36:44;;;;;;;;;;;;;;;;;;6187598;23;19920;-91
2023/04/18 04:39:13;;;;;;;;;;;;;;;;;;6161130;23;19927;-91
2023/04/18 04:41:52;;;;;;;;;;;;;;;;;;6161828;23;20363;-91
2023/04/18 04:44:25;;;;;;;;;;;;;;;;;;6172132;23;19920;-91
2023/04/18 04:46:54;;;;;;;;;;;;;;;;;;6173029;23;19920;-92
2023/04/18 04:49:26;;;;;;;;;;;;;;;;;;6138293;23;19920;-92
2023/04/18 04:51:53;;;;;;;;;;;;;;;;;;6159218;23;20264;-91
2023/04/18 04:54:21;;;;;;;;;;;;;;;;;;6161627;23;20340;-91
2023/04/18 04:56:48;;;;;;;;;;;;;;;;;;6162039;23;19920;-92
2023/04/18 04:59:15;;;;;;;;;;;;;;;;;;6137322;23;20364;-91
2023/04/18 05:01:46;;;;;;;;;;;;;;;;;;6188383;23;19927;-92
2023/04/18 05:04:15;;;;;;;;;;;;;;;;;;6205933;23;19921;-91
2023/04/18 05:06:42;;;;;;;;;;;;;;;;;;6207952;23;19930;-91
2023/04/18 05:09:10;;;;;;;;;;;;;;;;;;6208045;23;19920;-91
2023/04/18 05:11:37;;;;;;;;;;;;;;;;;;6207607;23;19924;-93
2023/04/18 05:14:04;;;;;;;;;;;;;;;;;;6182125;23;19920;-91
2023/04/18 05:16:31;;;;;;;;;;;;;;;;;;6177475;23;19927;-91
2023/04/18 05:19:00;;;;;;;;;;;;;;;;;;6191592;23;19926;-91
2023/04/18 05:21:27;;;;;;;;;;;;;;;;;;6199901;23;19924;-92
2023/04/18 05:23:55;;;;;;;;;;;;;;;;;;6197714;23;19920;-91
2023/04/18 05:26:22;;;;;;;;;;;;;;;;;;6184448;23;19927;-92
2023/04/18 05:28:49;;;;;;;;;;;;;;;;;;6193153;23;19927;-92
2023/04/18 05:31:16;;;;;;;;;;;;;;;;;;6128276;23;20263;-91
2023/04/18 05:33:43;;;;;;;;;;;;;;;;;;6186001;23;19920;-91
2023/04/18 05:36:12;;;;;;;;;;;;;;;;;;6132033;23;19924;-89
2023/04/18 05:38:39;;;;;;;;;;;;;;;;;;6159552;23;19920;-90
2023/04/18 05:41:06;;;;;;;;;;;;;;;;;;6160955;23;19928;-91
2023/04/18 05:43:33;;;;;;;;;;;;;;;;;;6185660;23;19924;-90
2023/04/18 06:12:17;;;;;;;;;;;;;;;;;;6207974;23;19924;-79
2023/04/18 06:14:44;;;;;;;;;;;;;;;;;;6161055;23;19927;-79
2023/04/18 06:17:12;;;;;;;;;;;;;;;;;;6160441;23;19935;-79
2023/04/18 06:19:39;;;;;;;;;;;;;;;;;;6212815;23;19924;-78
2023/04/18 06:22:06;;;;;;;;;;;;;;;;;;6213076;23;19931;-79
2023/04/18 06:24:36;;;;;;;;;;;;;;;;;;6212345;23;19924;-79
2023/04/18 06:27:06;;;;;;;;;;;;;;;;;;6222652;23;20260;-79
2023/04/18 06:29:34;;;;;;;;;;;;;;;;;;6186499;23;19927;-79
2023/04/18 06:32:04;;;;;;;;;;;;;;;;;;6186367;23;19920;-79
2023/04/18 06:34:34;;;;;;;;;;;;;;;;;;6186555;23;20340;-79
2023/04/18 06:37:01;;;;;;;;;;;;;;;;;;6186492;23;19927;-79
2023/04/18 06:39:31;;;;;;;;;;;;;;;;;;6186955;23;19920;-79
2023/04/18 06:41:58;;;;;;;;;;;;;;;;;;6186404;23;19927;-79
2023/04/18 06:44:30;;;;;;;;;;;;;;;;;;6194785;23;19931;-79
2023/04/18 06:46:59;;;;;;;;;;;;;;;;;;6186514;23;19927;-79
2023/04/18 06:49:28;;;;;;;;;;;;;;;;;;6185895;23;19931;-79
2023/04/18 06:51:57;;;;;;;;;;;;;;;;;;6161359;23;19920;-78
2023/04/18 06:54:24;;;;;;;;;;;;;;;;;;6212975;23;19920;-78
2023/04/18 06:56:52;;;;;;;;;;;;;;;;;;6161566;23;19924;-79
2023/04/18 06:59:22;;;;;;;;;;;;;;;;;;6162710;23;19920;-79
2023/04/18 07:01:49;;;;;;;;;;;;;;;;;;6213757;23;19927;-80
2023/04/18 07:04:17;;;;;;;;;;;;;;;;;;6162494;23;19924;-79
2023/04/18 07:06:47;;;;;;;;;;;;;;;;;;6225043;23;19927;-79
2023/04/18 07:09:16;;;;;;;;;;;;;;;;;;6162410;23;19931;-80
2023/04/18 07:11:45;;;;;;;;;;;;;;;;;;6188299;23;19923;-79
2023/04/18 07:14:14;;;;;;;;;;;;;;;;;;6188057;23;19920;-80
2023/04/18 07:16:41;;;;;;;;;;;;;;;;;;6163506;23;19927;-80
2023/04/18 07:19:13;;;;;;;;;;;;;;;;;;6188657;23;19920;-80
2023/04/18 07:21:43;;;;;;;;;;;;;;;;;;6214850;23;19927;-79
2023/04/18 07:24:15;;;;;;;;;;;;;;;;;;6225158;23;20332;-80
2023/04/18 07:26:42;;;;;;;;;;;;;;;;;;6162350;23;19924;-80
2023/04/18 07:29:09;;;;;;;;;;;;;;;;;;6212460;23;19924;-79
2023/04/18 07:31:36;;;;;;;;;;;;;;;;;;6185788;23;19943;-80
2023/04/18 07:34:07;;;;;;;;;;;;;;;;;;6185566;23;19924;-80
2023/04/18 07:36:34;;;;;;;;;;;;;;;;;;6212996;23;19927;-79
2023/04/18 07:39:03;;;;;;;;;;;;;;;;;;6214571;23;19927;-80
2023/04/18 07:41:32;;;;;;;;;;;;;;;;;;6218021;23;19920;-80
2023/04/18 07:43:59;;;;;;;;;;;;;;;;;;6214356;23;19927;-80
2023/04/18 07:46:31;;;;;;;;;;;;;;;;;;6187898;23;19927;-79
2023/04/18 07:48:58;;;;;;;;;;;;;;;;;;6188198;23;19931;-79
2023/04/18 07:51:30;;;;;;;;;;;;;;;;;;6191744;23;19920;-79
2023/04/18 07:53:57;;;;;;;;;;;;;;;;;;6187314;23;19920;-79
2023/04/18 07:56:27;;;;;;;;;;;;;;;;;;6163187;23;19927;-79
2023/04/18 07:58:54;;;;;;;;;;;;;;;;;;6214020;23;20040;-79
2023/04/18 08:01:25;;;;;;;;;;;;;;;;;;6189335;23;19919;-79
2023/04/18 08:03:53;;;;;;;;;;;;;;;;;;6187422;23;19919;-80
2023/04/18 08:06:23;;;;;;;;;;;;;;;;;;6213993;23;19920;-80
2023/04/18 08:08:52;;;;;;;;;;;;;;;;;;6213511;23;19920;-80
2023/04/18 08:11:21;;;;;;;;;;;;;;;;;;6211628;23;19924;-80
2023/04/18 08:13:50;;;;;;;;;;;;;;;;;;6185428;23;19928;-80
2023/04/18 08:16:17;;;;;;;;;;;;;;;;;;6214738;23;20233;-81
2023/04/18 08:18:44;;;;;;;;;;;;;;;;;;6214054;23;20259;-81
2023/04/18 08:21:11;;;;;;;;;;;;;;;;;;6186955;23;19924;-81
2023/04/18 08:23:38;;;;;;;;;;;;;;;;;;6214209;23;20336;-79
2023/04/18 08:26:05;;;;;;;;;;;;;;;;;;6222535;23;19924;-79
2023/04/18 08:28:37;;;;;;;;;;;;;;;;;;6162552;23;19920;-79
2023/04/18 08:31:09;;;;;;;;;;;;;;;;;;6188759;23;19920;-78
2023/04/18 08:33:36;;;;;;;;;;;;;;;;;;6186554;23;20374;-79
2023/04/18 08:36:03;;;;;;;;;;;;;;;;;;6186312;23;19920;-79
2023/04/18 08:38:30;;;;;;;;;;;;;;;;;;6186508;23;19924;-79
2023/04/18 08:40:59;;;;;;;;;;;;;;;;;;6187855;23;20344;-79
2023/04/18 08:43:28;;;;;;;;;;;;;;;;;;6186951;23;19924;-79
2023/04/18 08:45:58;;;;;;;;;;;;;;;;;;6187585;23;19920;-79
2023/04/18 08:48:26;;;;;;;;;;;;;;;;;;6213390;23;19927;-79
2023/04/18 08:50:56;;;;;;;;;;;;;;;;;;6185732;23;19920;-79
2023/04/18 08:53:23;;;;;;;;;;;;;;;;;;6187124;23;19920;-79
2023/04/18 08:55:53;;;;;;;;;;;;;;;;;;6161392;23;20361;-79
2023/04/18 08:58:23;;;;;;;;;;;;;;;;;;6213320;23;19920;-79
2023/04/18 09:00:52;;;;;;;;;;;;;;;;;;6214416;23;20331;-79
2023/04/18 09:06:17;;;;;;;;;;;;;;;;;;5102866;27;20274;-81
2023/04/18 09:08:55;;;;;;;;;;;;;;;;;;5108651;28;19931;-81
2023/04/18 09:11:23;;;;;;;;;;;;;;;;;;5088797;28;19935;-81
2023/04/18 09:13:54;;;;;;;;;;;;;;;;;;5103421;28;19932;-81
2023/04/18 09:16:24;;;;;;;;;;;;;;;;;;5097266;28;20381;-81
2023/04/18 09:19:16;;;;;;;;;;;;;;;;;;5107566;28;19931;-81
2023/04/18 09:21:47;;;;;;;;;;;;;;;;;;5080314;28;20311;-81
2023/04/18 09:24:19;;;;;;;;;;;;;;;;;;5097133;28;19928;-81
2023/04/18 09:26:49;;;;;;;;;;;;;;;;;;5083977;28;19924;-81
2023/04/18 09:29:17;;;;;;;;;;;;;;;;;;5086789;28;19924;-81
2023/04/18 09:31:54;;;;;;;;;;;;;;;;;;5081286;28;19939;-81
2023/04/18 09:34:26;;;;;;;;;;;;;;;;;;5098186;28;20420;-81
2023/04/18 09:37:06;;;;;;;;;;;;;;;;;;5108163;28;19924;-80
2023/04/18 09:39:33;;;;;;;;;;;;;;;;;;5102288;28;19924;-80
2023/04/18 09:42:01;;;;;;;;;;;;;;;;;;5097651;28;19924;-81
2023/04/18 09:44:28;;;;;;;;;;;;;;;;;;5095848;28;19932;-81
2023/04/18 09:46:55;;;;;;;;;;;;;;;;;;5089037;28;19932;-81
2023/04/18 09:49:22;;;;;;;;;;;;;;;;;;5096683;28;19924;-81
2023/04/18 09:51:50;;;;;;;;;;;;;;;;;;5095590;28;19933;-81
2023/04/18 09:54:19;;;;;;;;;;;;;;;;;;5101759;28;19935;-81
2023/04/18 09:56:50;;;;;;;;;;;;;;;;;;5089772;28;20400;-81
2023/04/18 09:59:26;;;;;;;;;;;;;;;;;;5094902;28;19931;-81
2023/04/18 10:01:53;;;;;;;;;;;;;;;;;;5096328;28;19932;-81
2023/04/18 10:04:24;;;;;;;;;;;;;;;;;;5101274;28;19931;-81
2023/04/18 10:07:02;;;;;;;;;;;;;;;;;;5101917;28;19924;-81
2023/04/18 10:09:33;;;;;;;;;;;;;;;;;;5097168;28;19931;-81
2023/04/18 10:12:02;;;;;;;;;;;;;;;;;;5102981;28;20396;-81
2023/04/18 10:14:37;;;;;;;;;;;;;;;;;;5103389;28;19924;-81
2023/04/18 10:17:08;;;;;;;;;;;;;;;;;;5092515;28;19991;-81
2023/04/18 10:19:40;;;;;;;;;;;;;;;;;;5083511;28;19924;-81
2023/04/18 10:22:11;;;;;;;;;;;;;;;;;;5085247;28;19924;-81
2023/04/18 10:24:55;;;;;;;;;;;;;;;;;;5069115;28;19932;-81
2023/04/18 10:27:41;;;;;;;;;;;;;;;;;;5080617;28;19924;-80
2023/04/18 10:30:13;;;;;;;;;;;;;;;;;;5080638;28;19924;-81
2023/04/18 10:32:45;;;;;;;;;;;;;;;;;;5083785;28;19928;-80
2023/04/18 10:35:12;;;;;;;;;;;;;;;;;;5091889;28;19931;-80
2023/04/18 10:37:48;;;;;;;;;;;;;;;;;;5065605;28;20393;-80
2023/04/18 10:40:19;;;;;;;;;;;;;;;;;;5081652;28;19924;-79
2023/04/18 10:42:57;;;;;;;;;;;;;;;;;;5083076;28;20407;-79
2023/04/18 10:45:25;;;;;;;;;;;;;;;;;;5078395;28;19928;-79
2023/04/18 10:47:55;;;;;;;;;;;;;;;;;;5070625;28;19931;-79
2023/04/18 10:50:22;;;;;;;;;;;;;;;;;;5076294;28;19925;-79
2023/04/18 10:52:49;;;;;;;;;;;;;;;;;;5085540;28;19925;-79
2023/04/18 10:55:20;;;;;;;;;;;;;;;;;;5081668;28;19925;-79
2023/04/18 10:57:50;;;;;;;;;;;;;;;;;;5082109;28;19924;-79
2023/04/18 11:00:20;;;;;;;;;;;;;;;;;;5076207;28;19924;-79
2023/04/18 11:02:51;;;;;;;;;;;;;;;;;;5073376;28;19925;-79
2023/04/18 11:05:23;;;;;;;;;;;;;;;;;;5074975;28;19924;-79
2023/04/18 11:07:50;;;;;;;;;;;;;;;;;;5065434;28;19928;-79
2023/04/18 11:10:18;;;;;;;;;;;;;;;;;;5082597;28;19931;-79
2023/04/18 11:12:47;;;;;;;;;;;;;;;;;;5081589;28;19928;-79
2023/04/18 11:15:23;;;;;;;;;;;;;;;;;;5088658;28;19924;-79
2023/04/18 11:18:10;;;;;;;;;;;;;;;;;;5065164;28;19924;-79
2023/04/18 11:20:38;;;;;;;;;;;;;;;;;;5085971;28;19939;-79
2023/04/18 11:23:10;;;;;;;;;;;;;;;;;;5079558;28;19928;-79
2023/04/18 11:25:43;;;;;;;;;;;;;;;;;;5070366;28;19924;-79
2023/04/18 11:28:12;;;;;;;;;;;;;;;;;;5084766;28;19972;-78
2023/04/18 11:30:40;;;;;;;;;;;;;;;;;;5082949;28;20377;-79
2023/04/18 11:33:10;;;;;;;;;;;;;;;;;;5087114;28;19928;-79
2023/04/18 11:35:37;;;;;;;;;;;;;;;;;;5071306;28;20285;-79
2023/04/18 11:38:04;;;;;;;;;;;;;;;;;;5074867;28;19940;-79
2023/04/18 11:40:31;;;;;;;;;;;;;;;;;;5085106;28;19998;-79
2023/04/18 11:43:01;;;;;;;;;;;;;;;;;;5087656;28;19928;-79
2023/04/18 11:45:31;;;;;;;;;;;;;;;;;;5080948;28;19924;-79
2023/04/18 11:48:01;;;;;;;;;;;;;;;;;;5079027;28;20313;-78
2023/04/18 11:50:28;;;;;;;;;;;;;;;;;;5086987;28;19949;-78
2023/04/18 11:52:55;;;;;;;;;;;;;;;;;;5088489;28;19924;-79
2023/04/18 11:55:23;;;;;;;;;;;;;;;;;;5086709;28;19925;-79
2023/04/18 11:57:51;;;;;;;;;;;;;;;;;;5075702;28;19932;-79
2023/04/18 12:00:20;;;;;;;;;;;;;;;;;;5077652;28;20525;-79
2023/04/18 12:02:49;;;;;;;;;;;;;;;;;;5072399;28;19932;-79
2023/04/18 12:05:26;;;;;;;;;;;;;;;;;;5073306;28;19932;-78
2023/04/18 12:07:53;;;;;;;;;;;;;;;;;;5076232;28;19928;-78
2023/04/18 12:10:23;;;;;;;;;;;;;;;;;;5118407;22;19924;-85
2023/04/18 12:12:51;;;;;;;;;;;;;;;;;;5028247;28;19928;-86
2023/04/18 12:15:18;;;;;;;;;;;;;;;;;;5036046;28;20293;-85
2023/04/18 12:17:47;;;;;;;;;;;;;;;;;;5053681;28;19924;-84
2023/04/18 12:20:15;;;;;;;;;;;;;;;;;;5030284;28;20417;-85
2023/04/18 12:22:43;;;;;;;;;;;;;;;;;;5034437;28;20477;-85
2023/04/18 12:25:20;;;;;;;;;;;;;;;;;;5031005;28;19932;-84
2023/04/18 12:27:48;;;;;;;;;;;;;;;;;;5046656;28;20420;-85
2023/04/18 12:30:15;;;;;;;;;;;;;;;;;;5033322;28;19940;-87
2023/04/18 12:32:43;;;;;;;;;;;;;;;;;;5054457;28;20315;-86
2023/04/18 12:35:10;;;;;;;;;;;;;;;;;;5033235;28;19955;-85
2023/04/18 12:37:39;;;;;;;;;;;;;;;;;;5043339;28;19939;-85
2023/04/18 12:40:07;;;;;;;;;;;;;;;;;;5048098;28;19947;-83
2023/04/18 12:42:34;;;;;;;;;;;;;;;;;;5008571;28;19931;-86
2023/04/18 12:45:06;;;;;;;;;;;;;;;;;;5022665;28;19931;-85
2023/04/18 12:47:33;;;;;;;;;;;;;;;;;;5044513;28;19932;-86
2023/04/18 12:50:00;;;;;;;;;;;;;;;;;;5037967;28;19929;-86
2023/04/18 12:52:27;;;;;;;;;;;;;;;;;;5034092;28;20557;-86
2023/04/18 12:54:56;;;;;;;;;;;;;;;;;;5030698;28;20413;-86
2023/04/18 12:57:24;;;;;;;;;;;;;;;;;;5053725;28;19932;-86
2023/04/18 12:59:51;;;;;;;;;;;;;;;;;;5053394;28;19932;-86
2023/04/18 13:02:18;;;;;;;;;;;;;;;;;;5058924;28;19931;-85
2023/04/18 13:04:45;;;;;;;;;;;;;;;;;;5053624;28;19924;-86
2023/04/18 13:07:14;;;;;;;;;;;;;;;;;;5035377;28;20309;-85
2023/04/18 13:09:45;;;;;;;;;;;;;;;;;;5040041;28;19925;-86
2023/04/18 13:12:18;;;;;;;;;;;;;;;;;;5038624;28;19932;-87
2023/04/18 13:14:45;;;;;;;;;;;;;;;;;;5057937;28;19925;-87
2023/04/18 13:17:13;;;;;;;;;;;;;;;;;;5053593;28;19928;-86
2023/04/18 13:19:42;;;;;;;;;;;;;;;;;;5057286;28;20547;-87
2023/04/18 13:22:11;;;;;;;;;;;;;;;;;;5065012;28;19924;-85
2023/04/18 13:24:38;;;;;;;;;;;;;;;;;;5050693;28;19947;-86
2023/04/18 13:27:09;;;;;;;;;;;;;;;;;;5032996;28;19931;-86
2023/04/18 13:29:40;;;;;;;;;;;;;;;;;;5038413;28;19935;-88
2023/04/18 13:32:12;;;;;;;;;;;;;;;;;;5062928;28;19925;-86
2023/04/18 13:34:41;;;;;;;;;;;;;;;;;;5060678;28;19924;-86
2023/04/18 13:37:10;;;;;;;;;;;;;;;;;;5031801;28;19925;-86
2023/04/18 13:39:37;;;;;;;;;;;;;;;;;;5048920;28;20408;-86
2023/04/18 13:42:06;;;;;;;;;;;;;;;;;;5013835;28;19929;-86
2023/04/18 13:44:33;;;;;;;;;;;;;;;;;;5032042;28;19925;-86
2023/04/18 13:47:02;;;;;;;;;;;;;;;;;;5048529;28;19940;-86
2023/04/18 13:49:31;;;;;;;;;;;;;;;;;;5057186;28;19929;-86
2023/04/18 13:51:58;;;;;;;;;;;;;;;;;;5035229;28;20321;-87
2023/04/18 13:54:26;;;;;;;;;;;;;;;;;;5052960;28;19924;-86
2023/04/18 13:56:53;;;;;;;;;;;;;;;;;;5051276;28;19925;-85
2023/04/18 13:59:20;;;;;;;;;;;;;;;;;;5043670;28;19932;-86
2023/04/18 14:01:50;;;;;;;;;;;;;;;;;;5050931;28;19925;-85
2023/04/18 14:04:21;;;;;;;;;;;;;;;;;;5013704;28;19932;-86
2023/04/18 14:06:48;;;;;;;;;;;;;;;;;;5018086;28;19929;-86
2023/04/18 14:09:15;;;;;;;;;;;;;;;;;;5035724;28;19929;-87
2023/04/18 14:11:45;;;;;;;;;;;;;;;;;;5066083;28;20305;-87
2023/04/18 14:14:14;;;;;;;;;;;;;;;;;;5034672;28;19932;-85
2023/04/18 14:16:41;;;;;;;;;;;;;;;;;;5047886;28;19932;-86
2023/04/18 14:19:08;;;;;;;;;;;;;;;;;;5051399;28;19929;-86
2023/04/18 14:21:38;;;;;;;;;;;;;;;;;;5033114;28;19931;-86
2023/04/18 14:24:08;;;;;;;;;;;;;;;;;;5029623;28;19947;-86
2023/04/18 14:26:37;;;;;;;;;;;;;;;;;;5017693;28;19925;-86
2023/04/18 14:29:06;;;;;;;;;;;;;;;;;;5036822;28;20412;-86
2023/04/18 14:31:36;;;;;;;;;;;;;;;;;;5053829;28;19924;-87
2023/04/18 14:34:07;;;;;;;;;;;;;;;;;;5042296;28;19925;-85
2023/04/18 14:36:36;;;;;;;;;;;;;;;;;;5021747;28;20321;-85
2023/04/18 14:39:07;;;;;;;;;;;;;;;;;;5050113;28;19924;-85
2023/04/18 14:41:34;;;;;;;;;;;;;;;;;;5044434;28;19932;-86
2023/04/18 14:44:03;;;;;;;;;;;;;;;;;;5063299;28;19932;-87
2023/04/18 14:46:30;;;;;;;;;;;;;;;;;;5050759;28;19933;-86
2023/04/18 14:48:57;;;;;;;;;;;;;;;;;;5054275;28;19925;-86
2023/04/18 14:51:25;;;;;;;;;;;;;;;;;;5019791;28;19932;-86
2023/04/18 14:53:54;;;;;;;;;;;;;;;;;;5030402;28;19925;-86
2023/04/18 14:56:23;;;;;;;;;;;;;;;;;;5028446;28;20386;-86
2023/04/18 14:58:50;;;;;;;;;;;;;;;;;;5017854;28;19936;-86
2023/04/18 15:01:17;;;;;;;;;;;;;;;;;;5029358;28;19929;-86
2023/04/18 15:03:46;;;;;;;;;;;;;;;;;;5052447;28;19924;-86
2023/04/18 15:06:13;;;;;;;;;;;;;;;;;;5017570;28;19929;-86
2023/04/18 15:08:43;;;;;;;;;;;;;;;;;;5043910;28;20305;-87
2023/04/18 15:11:10;;;;;;;;;;;;;;;;;;5022216;28;19948;-86
2023/04/18 15:13:41;;;;;;;;;;;;;;;;;;5039933;28;19931;-86
2023/04/18 15:16:08;;;;;;;;;;;;;;;;;;5064599;28;20297;-84
2023/04/18 15:18:35;;;;;;;;;;;;;;;;;;5036229;28;19928;-87
2023/04/18 15:21:05;;;;;;;;;;;;;;;;;;5017766;28;20297;-87
2023/04/18 15:23:35;;;;;;;;;;;;;;;;;;5057434;28;19924;-87
2023/04/18 15:26:05;;;;;;;;;;;;;;;;;;5045565;28;19924;-86
2023/04/18 15:28:32;;;;;;;;;;;;;;;;;;5035098;28;19935;-86
2023/04/18 15:31:00;;;;;;;;;;;;;;;;;;5044747;28;19924;-86
2023/04/18 15:33:29;;;;;;;;;;;;;;;;;;5061847;28;19924;-86
2023/04/18 15:35:56;;;;;;;;;;;;;;;;;;5062349;28;19925;-87
2023/04/18 15:38:28;;;;;;;;;;;;;;;;;;5055880;28;19924;-86
2023/04/18 15:41:22;;;;;;;;;;;;;;;;;;5041233;28;19931;-86
2023/04/18 15:43:52;;;;;;;;;;;;;;;;;;5047970;28;19929;-86
2023/04/18 15:46:22;;;;;;;;;;;;;;;;;;5019770;28;19932;-86
2023/04/18 15:48:49;;;;;;;;;;;;;;;;;;5054313;28;19925;-86
2023/04/18 15:51:17;;;;;;;;;;;;;;;;;;5040095;28;19925;-86
2023/04/18 15:53:46;;;;;;;;;;;;;;;;;;5049423;28;19933;-86
2023/04/18 15:56:18;;;;;;;;;;;;;;;;;;5032363;28;19925;-86
2023/04/18 15:58:45;;;;;;;;;;;;;;;;;;5034568;28;20365;-86
2023/04/18 16:01:14;;;;;;;;;;;;;;;;;;5040329;28;20381;-86
2023/04/18 16:03:43;;;;;;;;;;;;;;;;;;5048089;28;19936;-85
2023/04/18 16:06:13;;;;;;;;;;;;;;;;;;5050061;28;19927;-86
2023/04/18 16:08:45;;;;;;;;;;;;;;;;;;5034745;28;19924;-86
2023/04/18 16:14:36;;;;;;;;;;;;;;;;;;5052527;28;19925;-87
2023/04/18 16:17:22;;;;;;;;;;;;;;;;;;5044282;28;20409;-86
2023/04/18 16:20:09;;;;;;;;;;;;;;;;;;5044925;28;19925;-86
2023/04/18 16:22:38;;;;;;;;;;;;;;;;;;5028631;28;19925;-87
2023/04/18 16:25:10;;;;;;;;;;;;;;;;;;5017569;28;19925;-87
2023/04/18 16:27:39;;;;;;;;;;;;;;;;;;5054830;28;20301;-89
2023/04/18 16:30:08;;;;;;;;;;;;;;;;;;5058889;28;19940;-88
2023/04/18 16:32:36;;;;;;;;;;;;;;;;;;5016105;28;19924;-87
2023/04/18 16:35:05;;;;;;;;;;;;;;;;;;5051202;28;19932;-87
2023/04/18 16:37:35;;;;;;;;;;;;;;;;;;5041450;28;19924;-89
2023/04/18 16:40:04;;;;;;;;;;;;;;;;;;5034161;28;19925;-87
2023/04/18 16:42:31;;;;;;;;;;;;;;;;;;5031601;28;19936;-88
2023/04/18 16:44:58;;;;;;;;;;;;;;;;;;5032421;28;19925;-87
2023/04/18 16:47:25;;;;;;;;;;;;;;;;;;5028962;28;19924;-87
2023/04/18 16:49:55;;;;;;;;;;;;;;;;;;5057121;28;20406;-88
2023/04/18 16:52:22;;;;;;;;;;;;;;;;;;5057809;28;19925;-87
2023/04/18 16:54:50;;;;;;;;;;;;;;;;;;5043173;28;19925;-88
2023/04/18 16:57:19;;;;;;;;;;;;;;;;;;5013608;28;19932;-89
2023/04/18 16:59:47;;;;;;;;;;;;;;;;;;5062178;28;19932;-87
2023/04/18 17:02:14;;;;;;;;;;;;;;;;;;5056717;28;19933;-86
2023/04/18 17:04:43;;;;;;;;;;;;;;;;;;5049453;28;19924;-88
2023/04/18 17:07:12;;;;;;;;;;;;;;;;;;5017317;28;20390;-87
2023/04/18 17:09:40;;;;;;;;;;;;;;;;;;5063879;28;19932;-87
2023/04/18 17:12:08;;;;;;;;;;;;;;;;;;5054707;28;19924;-88
2023/04/18 17:14:36;;;;;;;;;;;;;;;;;;5050499;28;20390;-88
2023/04/18 17:17:05;;;;;;;;;;;;;;;;;;5042626;28;19925;-89
2023/04/18 17:19:32;;;;;;;;;;;;;;;;;;5030409;28;20469;-90
2023/04/18 17:21:59;;;;;;;;;;;;;;;;;;5017313;28;19936;-88
2023/04/18 17:24:29;;;;;;;;;;;;;;;;;;5015483;28;19932;-88
2023/04/18 17:27:00;;;;;;;;;;;;;;;;;;5059860;28;19929;-88
2023/04/18 17:29:31;;;;;;;;;;;;;;;;;;5018141;28;19924;-88
2023/04/18 17:31:58;;;;;;;;;;;;;;;;;;5036112;28;19929;-88